createdAt,value
2023-01-19T00:00:13.957Z,22.67
2023-01-19T00:02:22.870Z,21.27
2023-01-19T00:04:30.120Z,19.55
2023-01-19T00:06:36.943Z,19.67
2023-01-19T00:08:45.703Z,20.88
2023-01-19T00:10:53.838Z,22.45
2023-01-19T00:13:01.648Z,24.30
2023-01-19T00:15:09.608Z,19.55
2023-01-19T00:17:16.890Z,21.65
2023-01-19T00:19:25.458Z,25.17
2023-01-19T00:21:32.939Z,29.90
2023-01-19T00:23:39.753Z,29.23
2023-01-19T00:25:48.224Z,27.55
2023-01-19T00:27:56.532Z,26.90
2023-01-19T00:30:04.942Z,26.00
2023-01-19T00:32:11.774Z,26.48
2023-01-19T00:34:19.102Z,28.08
2023-01-19T00:36:27.777Z,24.05
2023-01-19T00:38:34.955Z,26.33
2023-01-19T00:40:41.876Z,34.22
2023-01-19T00:42:49.467Z,24.15
2023-01-19T00:44:56.905Z,24.15
2023-01-19T00:47:05.886Z,27.38
2023-01-19T00:49:12.956Z,22.90
2023-01-19T00:51:20.274Z,22.85
2023-01-19T00:53:30.083Z,23.20
2023-01-19T00:55:37.217Z,27.17
2023-01-19T00:57:44.410Z,21.08
2023-01-19T00:59:51.582Z,18.95
2023-01-19T01:01:58.749Z,21.63
2023-01-19T01:04:06.094Z,26.75
2023-01-19T01:06:13.071Z,26.85
2023-01-19T01:08:20.255Z,29.77
2023-01-19T01:10:31.326Z,25.98
2023-01-19T01:12:38.612Z,24.70
2023-01-19T01:14:45.637Z,26.40
2023-01-19T01:16:53.083Z,20.25
2023-01-19T01:18:59.899Z,28.13
2023-01-19T01:21:07.758Z,22.30
2023-01-19T01:23:14.772Z,21.25
2023-01-19T01:25:24.728Z,21.30
2023-01-19T01:27:33.436Z,19.60
2023-01-19T01:29:42.154Z,19.58
2023-01-19T01:31:49.170Z,27.23
2023-01-19T01:33:56.468Z,20.70
2023-01-19T01:36:03.392Z,18.25
2023-01-19T01:38:10.624Z,16.75
2023-01-19T01:40:20.008Z,19.27
2023-01-19T01:42:33.333Z,17.80
2023-01-19T01:44:55.004Z,18.98
2023-01-19T01:47:02.389Z,21.13
2023-01-19T01:49:15.110Z,22.98
2023-01-19T01:51:26.812Z,23.75
2023-01-19T01:53:36.609Z,21.10
2023-01-19T01:55:46.344Z,21.00
2023-01-19T01:57:58.472Z,20.83
2023-01-19T02:00:06.890Z,16.67
2023-01-19T02:02:35.448Z,17.77
2023-01-19T02:04:46.331Z,16.92
2023-01-19T02:07:10.058Z,12.35
2023-01-19T02:09:34.027Z,10.40
2023-01-19T02:11:57.938Z,11.95
2023-01-19T02:14:07.631Z,9.02
2023-01-19T02:16:15.554Z,9.45
2023-01-19T02:18:24.109Z,8.85
2023-01-19T02:20:33.333Z,8.30
2023-01-19T02:22:48.502Z,10.07
2023-01-19T02:24:57.680Z,8.50
2023-01-19T02:27:04.819Z,9.52
2023-01-19T02:29:14.489Z,9.10
2023-01-19T02:31:21.784Z,8.30
2023-01-19T02:33:28.964Z,9.18
2023-01-19T02:35:37.437Z,10.55
2023-01-19T02:37:46.114Z,10.43
2023-01-19T02:39:58.601Z,10.57
2023-01-19T02:42:09.314Z,10.30
2023-01-19T02:44:18.546Z,10.57
2023-01-19T02:46:25.917Z,9.65
2023-01-19T02:48:34.296Z,9.00
2023-01-19T02:50:47.054Z,9.38
2023-01-19T02:52:56.894Z,8.18
2023-01-19T02:55:17.388Z,9.95
2023-01-19T02:57:45.920Z,11.60
2023-01-19T03:00:10.716Z,7.80
2023-01-19T03:02:37.351Z,8.30
2023-01-19T03:04:57.441Z,8.50
2023-01-19T03:07:13.680Z,9.52
2023-01-19T03:09:29.617Z,10.43
2023-01-19T03:11:44.326Z,9.10
2023-01-19T03:13:55.551Z,15.93
2023-01-19T03:16:09.494Z,10.90
2023-01-19T03:18:19.030Z,10.95
2023-01-19T03:20:29.747Z,9.43
2023-01-19T03:22:37.344Z,9.50
2023-01-19T03:24:46.307Z,12.00
2023-01-19T03:26:59.790Z,10.02
2023-01-19T03:29:08.507Z,8.23
2023-01-19T03:31:22.117Z,10.15
2023-01-19T03:33:34.037Z,9.40
2023-01-19T03:35:45.971Z,6.20
2023-01-19T03:37:59.098Z,12.07
2023-01-19T03:40:06.075Z,11.07
2023-01-19T03:42:17.642Z,7.78
2023-01-19T03:44:25.348Z,8.45
2023-01-19T03:46:33.655Z,6.75
2023-01-19T03:48:41.707Z,7.57
2023-01-19T03:50:48.787Z,7.93
2023-01-19T03:53:08.109Z,6.35
2023-01-19T03:55:15.339Z,7.13
2023-01-19T03:57:23.898Z,7.65
2023-01-19T03:59:31.335Z,8.25
2023-01-19T04:01:38.518Z,7.38
2023-01-19T04:03:45.904Z,11.63
2023-01-19T04:05:52.783Z,8.10
2023-01-19T04:08:00.020Z,10.10
2023-01-19T04:10:07.140Z,7.32
2023-01-19T04:12:14.428Z,9.02
2023-01-19T04:14:23.500Z,9.10
2023-01-19T04:16:30.651Z,8.80
2023-01-19T04:18:38.598Z,11.98
2023-01-19T04:20:45.813Z,12.02
2023-01-19T04:22:52.743Z,9.57
2023-01-19T04:25:00.182Z,13.30
2023-01-19T04:27:07.204Z,9.63
2023-01-19T04:29:15.362Z,10.00
2023-01-19T04:31:25.375Z,9.32
2023-01-19T04:33:32.744Z,8.50
2023-01-19T04:35:39.623Z,11.73
2023-01-19T04:37:47.566Z,8.52
2023-01-19T04:39:54.440Z,11.88
2023-01-19T04:42:01.932Z,8.93
2023-01-19T04:44:09.218Z,11.52
2023-01-19T04:46:16.424Z,10.10
2023-01-19T04:48:25.113Z,10.00
2023-01-19T04:50:32.347Z,8.55
2023-01-19T04:52:39.892Z,7.40
2023-01-19T04:54:47.019Z,9.73
2023-01-19T04:56:53.892Z,7.85
2023-01-19T04:59:01.141Z,8.27
2023-01-19T05:01:12.115Z,8.25
2023-01-19T05:03:20.340Z,7.80
2023-01-19T05:05:29.028Z,10.55
2023-01-19T05:07:36.196Z,10.40
2023-01-19T05:09:42.953Z,7.38
2023-01-19T05:11:50.202Z,8.93
2023-01-19T05:13:57.024Z,10.30
2023-01-19T05:16:04.376Z,10.45
2023-01-19T05:18:11.289Z,8.07
2023-01-19T05:20:18.676Z,8.27
2023-01-19T05:22:27.440Z,7.53
2023-01-19T05:24:34.726Z,11.20
2023-01-19T05:26:41.654Z,9.48
2023-01-19T05:28:48.782Z,8.45
2023-01-19T05:30:55.786Z,11.98
2023-01-19T05:33:03.319Z,11.63
2023-01-19T05:35:11.296Z,11.27
2023-01-19T05:37:18.583Z,7.60
2023-01-19T05:39:27.762Z,8.30
2023-01-19T05:41:34.928Z,6.38
2023-01-19T05:43:41.849Z,8.50
2023-01-19T05:45:49.053Z,7.70
2023-01-19T05:47:56.795Z,9.02
2023-01-19T05:50:04.078Z,8.48
2023-01-19T05:52:11.005Z,6.82
2023-01-19T05:54:18.905Z,6.70
2023-01-19T05:56:27.619Z,6.97
2023-01-19T05:58:35.484Z,9.07
2023-01-19T06:00:42.341Z,9.10
2023-01-19T06:02:50.320Z,7.30
2023-01-19T06:04:57.166Z,6.60
2023-01-19T06:07:04.757Z,11.15
2023-01-19T06:09:12.403Z,6.88
2023-01-19T06:11:19.634Z,6.75
2023-01-19T06:13:28.312Z,5.88
2023-01-19T06:15:35.172Z,8.50
2023-01-19T06:17:42.200Z,7.60
2023-01-19T06:19:49.130Z,6.63
2023-01-19T06:21:56.054Z,7.35
2023-01-19T06:24:03.232Z,6.45
2023-01-19T06:26:10.260Z,7.03
2023-01-19T06:28:17.239Z,5.97
2023-01-19T06:30:26.774Z,5.35
2023-01-19T06:32:34.110Z,5.72
2023-01-19T06:34:44.772Z,5.15
2023-01-19T06:36:52.210Z,4.55
2023-01-19T06:38:59.135Z,4.35
2023-01-19T06:41:06.324Z,6.93
2023-01-19T06:43:15.599Z,4.80
2023-01-19T06:45:22.935Z,3.88
2023-01-19T06:47:31.481Z,4.18
2023-01-19T06:49:38.378Z,4.68
2023-01-19T06:51:45.233Z,5.53
2023-01-19T06:53:52.177Z,4.68
2023-01-19T06:56:03.963Z,5.72
2023-01-19T06:58:11.551Z,4.28
2023-01-19T07:00:19.691Z,4.97
2023-01-19T07:02:28.728Z,5.30
2023-01-19T07:04:37.807Z,4.40
2023-01-19T07:06:44.717Z,4.45
2023-01-19T07:08:51.916Z,3.40
2023-01-19T07:11:25.160Z,3.97
2023-01-19T07:13:32.954Z,3.80
2023-01-19T07:15:40.288Z,6.07
2023-01-19T07:17:47.725Z,6.38
2023-01-19T07:19:56.393Z,4.95
2023-01-19T07:22:03.594Z,3.83
2023-01-19T07:24:10.857Z,4.65
2023-01-19T07:26:19.677Z,4.07
2023-01-19T07:28:26.654Z,4.60
2023-01-19T07:30:33.904Z,5.07
2023-01-19T07:32:40.865Z,6.40
2023-01-19T07:34:48.115Z,3.47
2023-01-19T07:36:56.711Z,4.60
2023-01-19T07:39:03.892Z,6.13
2023-01-19T07:41:12.713Z,3.88
2023-01-19T07:43:20.458Z,5.22
2023-01-19T07:45:28.462Z,4.03
2023-01-19T07:47:35.949Z,4.85
2023-01-19T07:49:43.029Z,6.72
2023-01-19T07:51:50.248Z,5.85
2023-01-19T07:53:59.235Z,5.60
2023-01-19T07:56:07.133Z,5.05
2023-01-19T07:58:14.313Z,5.32
2023-01-19T08:00:22.928Z,5.35
2023-01-19T08:02:29.906Z,4.80
2023-01-19T08:04:37.213Z,4.90
2023-01-19T08:06:48.262Z,4.75
2023-01-19T08:08:55.546Z,8.27
2023-01-19T08:11:04.263Z,5.22
2023-01-19T08:13:11.393Z,4.78
2023-01-19T08:15:18.574Z,4.32
2023-01-19T08:17:25.654Z,4.03
2023-01-19T08:19:32.748Z,5.03
2023-01-19T08:21:40.531Z,6.22
2023-01-19T08:23:47.490Z,4.60
2023-01-19T08:25:54.792Z,6.45
2023-01-19T08:28:03.974Z,4.90
2023-01-19T08:30:12.282Z,5.95
2023-01-19T08:32:19.926Z,4.55
2023-01-19T08:34:27.157Z,4.32
2023-01-19T08:36:34.180Z,5.28
2023-01-19T08:38:44.641Z,4.45
2023-01-19T08:40:52.854Z,5.35
2023-01-19T08:43:07.718Z,4.18
2023-01-19T08:45:15.091Z,5.13
2023-01-19T08:47:22.527Z,6.47
2023-01-19T08:49:29.509Z,5.18
2023-01-19T08:51:36.642Z,5.13
2023-01-19T08:53:44.186Z,6.70
2023-01-19T08:55:51.676Z,6.60
2023-01-19T08:58:00.925Z,6.28
2023-01-19T09:00:12.125Z,7.13
2023-01-19T09:02:19.070Z,6.45
2023-01-19T09:04:26.742Z,6.80
2023-01-19T09:06:33.716Z,5.95
2023-01-19T09:08:41.254Z,5.07
2023-01-19T09:10:52.433Z,5.95
2023-01-19T09:12:59.516Z,8.40
2023-01-19T09:15:06.442Z,6.35
2023-01-19T09:17:15.812Z,7.38
2023-01-19T09:19:22.748Z,4.88
2023-01-19T09:21:30.097Z,5.57
2023-01-19T09:23:36.959Z,6.93
2023-01-19T09:25:45.483Z,4.95
2023-01-19T09:27:52.356Z,13.68
2023-01-19T09:29:59.838Z,5.82
2023-01-19T09:32:06.764Z,5.70
2023-01-19T09:34:15.630Z,5.03
2023-01-19T09:36:22.567Z,6.80
2023-01-19T09:38:32.573Z,5.78
2023-01-19T09:40:41.983Z,10.25
2023-01-19T09:42:55.160Z,7.35
2023-01-19T09:45:03.364Z,6.00
2023-01-19T09:47:18.378Z,5.15
2023-01-19T09:49:34.266Z,5.65
2023-01-19T09:51:43.751Z,6.22
2023-01-19T09:53:58.429Z,6.35
2023-01-19T09:56:05.539Z,7.82
2023-01-19T09:58:17.329Z,6.03
2023-01-19T10:00:25.551Z,5.45
2023-01-19T10:02:43.423Z,5.75
2023-01-19T10:05:02.014Z,8.80
2023-01-19T10:07:29.143Z,8.68
2023-01-19T10:09:42.080Z,6.90
2023-01-19T10:11:54.637Z,8.85
2023-01-19T10:14:02.535Z,7.43
2023-01-19T10:16:24.710Z,7.40
2023-01-19T10:18:35.790Z,10.13
2023-01-19T10:20:47.850Z,7.80
2023-01-19T10:22:55.074Z,5.45
2023-01-19T10:25:07.268Z,8.77
2023-01-19T10:27:19.368Z,9.02
2023-01-19T10:29:31.137Z,8.40
2023-01-19T10:31:41.085Z,9.73
2023-01-19T10:33:48.172Z,6.00
2023-01-19T10:35:57.003Z,8.63
2023-01-19T10:38:05.677Z,10.65
2023-01-19T10:40:23.653Z,7.03
2023-01-19T10:42:33.554Z,10.77
2023-01-19T10:44:41.341Z,7.00
2023-01-19T10:46:50.983Z,7.80
2023-01-19T10:48:58.901Z,14.25
2023-01-19T10:51:08.978Z,11.02
2023-01-19T10:53:26.747Z,11.07
2023-01-19T10:55:35.231Z,12.13
2023-01-19T10:57:46.859Z,9.70
2023-01-19T10:59:54.348Z,7.90
2023-01-19T11:02:20.496Z,9.82
2023-01-19T11:04:32.127Z,8.65
2023-01-19T11:06:40.987Z,12.30
2023-01-19T11:08:49.187Z,10.10
2023-01-19T11:11:05.535Z,11.10
2023-01-19T11:13:17.016Z,13.82
2023-01-19T11:15:26.603Z,15.40
2023-01-19T11:17:33.641Z,31.08
2023-01-19T11:19:40.825Z,10.82
2023-01-19T11:21:49.707Z,11.60
2023-01-19T11:23:58.605Z,16.90
2023-01-19T11:26:08.150Z,14.60
2023-01-19T11:28:21.730Z,20.80
2023-01-19T11:30:29.322Z,15.02
2023-01-19T11:32:38.021Z,18.70
2023-01-19T11:34:44.857Z,19.00
2023-01-19T11:37:00.653Z,17.33
2023-01-19T11:39:26.414Z,18.00
2023-01-19T11:41:36.368Z,20.00
2023-01-19T11:43:48.993Z,20.13
2023-01-19T11:45:57.415Z,18.50
2023-01-19T11:48:08.910Z,16.52
2023-01-19T11:50:26.842Z,17.17
2023-01-19T11:52:42.940Z,21.40
2023-01-19T11:54:56.672Z,21.70
2023-01-19T11:57:04.304Z,22.88
2023-01-19T11:59:14.930Z,19.13
2023-01-19T12:01:25.819Z,29.65
2023-01-19T12:03:37.611Z,26.20
2023-01-19T12:05:48.264Z,36.03
2023-01-19T12:07:57.684Z,31.05
2023-01-19T12:10:18.156Z,26.52
2023-01-19T12:12:32.063Z,23.17
2023-01-19T12:14:44.564Z,43.15
2023-01-19T12:16:54.164Z,32.90
2023-01-19T12:19:04.567Z,37.40
2023-01-19T12:21:12.878Z,35.17
2023-01-19T12:23:42.790Z,33.97
2023-01-19T12:26:03.057Z,33.47
2023-01-19T12:28:14.251Z,33.83
2023-01-19T12:30:25.277Z,36.85
2023-01-19T12:32:38.491Z,44.38
2023-01-19T12:34:47.774Z,39.88
2023-01-19T12:36:55.527Z,38.97
2023-01-19T12:39:06.295Z,37.17
2023-01-19T12:41:31.696Z,32.75
2023-01-19T12:43:38.804Z,32.70
2023-01-19T12:45:49.063Z,34.13
2023-01-19T12:47:56.677Z,31.17
2023-01-19T12:50:09.070Z,30.67
2023-01-19T12:52:29.926Z,33.17
2023-01-19T12:54:38.799Z,35.28
2023-01-19T12:56:46.079Z,29.05
2023-01-19T12:58:53.273Z,35.00
2023-01-19T13:01:19.822Z,42.88
2023-01-19T13:04:10.599Z,37.45
2023-01-19T13:06:17.833Z,40.00
2023-01-19T13:08:30.858Z,44.25
2023-01-19T13:11:27.280Z,32.05
2023-01-19T13:13:38.745Z,31.35
2023-01-19T13:15:46.081Z,39.63
2023-01-19T13:17:54.472Z,40.58
2023-01-19T13:20:25.818Z,36.15
2023-01-19T13:23:05.197Z,57.03
2023-01-19T13:25:15.196Z,53.55
2023-01-19T13:27:22.176Z,47.80
2023-01-19T13:29:34.790Z,51.42
2023-01-19T13:31:43.522Z,43.42
2023-01-19T13:33:54.065Z,45.63
2023-01-19T13:36:02.469Z,45.42
2023-01-19T13:38:10.731Z,48.17
2023-01-19T13:40:27.298Z,49.88
2023-01-19T13:42:39.133Z,50.88
2023-01-19T13:44:53.316Z,49.45
2023-01-19T13:47:01.550Z,50.78
2023-01-19T13:49:16.485Z,45.00
2023-01-19T13:51:24.747Z,46.65
2023-01-19T13:53:32.462Z,46.80
2023-01-19T13:55:39.889Z,46.38
2023-01-19T13:57:48.281Z,36.80
2023-01-19T14:00:09.132Z,43.08
2023-01-19T14:02:19.092Z,36.25
2023-01-19T14:04:31.646Z,43.45
2023-01-19T14:06:42.816Z,40.15
2023-01-19T14:08:49.902Z,42.13
2023-01-19T14:11:06.136Z,43.80
2023-01-19T14:13:19.134Z,37.83
2023-01-19T14:15:27.779Z,38.58
2023-01-19T14:17:35.210Z,37.47
2023-01-19T14:19:54.875Z,37.22
2023-01-19T14:22:03.512Z,39.20
2023-01-19T14:24:14.141Z,36.15
2023-01-19T14:28:48.340Z,35.55
2023-01-19T14:31:01.738Z,35.10
2023-01-19T14:33:08.846Z,38.97
2023-01-19T14:35:27.958Z,33.70
2023-01-19T14:37:37.116Z,34.45
2023-01-19T14:39:48.933Z,33.72
2023-01-19T14:41:57.694Z,29.85
2023-01-19T14:44:05.440Z,29.63
2023-01-19T14:46:20.862Z,39.83
2023-01-19T14:48:30.352Z,35.35
2023-01-19T14:50:39.478Z,35.40
2023-01-19T14:52:52.171Z,32.30
2023-01-19T14:55:00.615Z,30.63
2023-01-19T14:57:08.019Z,32.42
2023-01-19T14:59:15.065Z,35.08
2023-01-19T15:01:24.161Z,43.15
2023-01-19T15:03:44.182Z,38.00
2023-01-19T15:05:53.983Z,29.67
2023-01-19T15:08:00.999Z,32.13
2023-01-19T15:10:13.096Z,38.78
2023-01-19T15:12:21.758Z,37.15
2023-01-19T15:14:29.101Z,37.53
2023-01-19T15:16:38.887Z,39.58
2023-01-19T15:18:45.967Z,31.50
2023-01-19T15:20:54.073Z,34.33
2023-01-19T15:23:01.249Z,39.92
2023-01-19T15:25:09.648Z,33.40
2023-01-19T15:27:17.054Z,39.42
2023-01-19T15:29:28.365Z,44.13
2023-01-19T15:31:36.974Z,32.97
2023-01-19T15:33:44.226Z,38.55
2023-01-19T15:35:51.304Z,35.20
2023-01-19T15:37:59.098Z,33.90
2023-01-19T15:40:06.223Z,30.25
2023-01-19T15:42:19.042Z,37.80
2023-01-19T15:44:25.928Z,32.25
2023-01-19T15:46:33.183Z,35.25
2023-01-19T15:48:41.767Z,33.83
2023-01-19T15:50:49.311Z,33.35
2023-01-19T15:52:56.130Z,35.35
2023-01-19T15:55:03.270Z,29.10
2023-01-19T15:57:10.088Z,31.80
2023-01-19T15:59:18.440Z,32.80
2023-01-19T16:01:32.245Z,30.73
2023-01-19T16:03:41.204Z,30.15
2023-01-19T16:05:48.678Z,32.22
2023-01-19T16:07:55.803Z,31.58
2023-01-19T16:10:02.608Z,27.60
2023-01-19T16:12:10.122Z,29.83
2023-01-19T16:14:17.666Z,27.65
2023-01-19T16:16:26.003Z,25.73
2023-01-19T16:18:32.843Z,24.90
2023-01-19T16:20:41.827Z,25.02
2023-01-19T16:22:48.759Z,25.58
2023-01-19T16:24:57.322Z,22.48
2023-01-19T16:27:04.985Z,22.13
2023-01-19T16:29:13.034Z,22.42
2023-01-19T16:31:21.816Z,19.20
2023-01-19T16:33:28.713Z,14.55
2023-01-19T16:35:35.577Z,18.02
2023-01-19T16:37:44.657Z,15.30
2023-01-19T16:39:53.625Z,16.23
2023-01-19T16:42:00.734Z,16.00
2023-01-19T16:44:08.219Z,15.02
2023-01-19T16:46:23.117Z,14.93
2023-01-19T16:48:30.136Z,16.73
2023-01-19T16:50:37.371Z,14.30
2023-01-19T16:52:45.938Z,12.23
2023-01-19T16:54:56.884Z,15.27
2023-01-19T16:57:04.044Z,14.73
2023-01-19T16:59:13.674Z,14.63
2023-01-19T17:01:22.223Z,12.98
2023-01-19T17:03:29.780Z,11.43
2023-01-19T17:05:36.707Z,13.88
2023-01-19T17:07:45.576Z,15.60
2023-01-19T17:09:52.759Z,13.82
2023-01-19T17:12:01.173Z,14.10
2023-01-19T17:14:10.541Z,11.68
2023-01-19T17:16:17.721Z,13.73
2023-01-19T17:18:24.591Z,12.13
2023-01-19T17:20:31.892Z,11.88
2023-01-19T17:22:38.920Z,10.30
2023-01-19T17:24:47.944Z,12.07
2023-01-19T17:26:54.971Z,11.95
2023-01-19T17:29:06.410Z,9.00
2023-01-19T17:31:14.538Z,9.05
2023-01-19T17:33:22.251Z,11.45
2023-01-19T17:35:29.229Z,10.70
2023-01-19T17:37:36.408Z,12.68
2023-01-19T17:39:43.502Z,10.60
2023-01-19T17:41:52.309Z,8.25
2023-01-19T17:44:00.214Z,8.30
2023-01-19T17:46:07.431Z,9.77
2023-01-19T17:48:14.826Z,9.90
2023-01-19T17:50:22.212Z,9.80
2023-01-19T17:52:29.206Z,8.43
2023-01-19T17:54:36.627Z,10.32
2023-01-19T17:56:43.604Z,9.32
2023-01-19T17:58:52.987Z,12.50
2023-01-19T18:01:00.061Z,10.60
2023-01-19T18:03:07.042Z,9.38
2023-01-19T18:05:15.742Z,7.05
2023-01-19T18:07:22.635Z,8.95
2023-01-19T18:09:29.714Z,7.43
2023-01-19T18:11:37.357Z,7.65
2023-01-19T18:13:47.404Z,8.45
2023-01-19T18:16:00.912Z,7.53
2023-01-19T18:18:08.476Z,6.65
2023-01-19T18:20:15.863Z,6.25
2023-01-19T18:22:23.095Z,6.07
2023-01-19T18:24:30.377Z,8.20
2023-01-19T18:26:38.583Z,9.90
2023-01-19T18:28:45.410Z,5.85
2023-01-19T18:30:52.591Z,5.90
2023-01-19T18:33:01.253Z,6.90
2023-01-19T18:35:09.306Z,6.47
2023-01-19T18:37:16.337Z,9.18
2023-01-19T18:39:23.399Z,6.95
2023-01-19T18:41:30.287Z,6.80
2023-01-19T18:43:37.417Z,7.72
2023-01-19T18:45:44.344Z,8.02
2023-01-19T18:47:51.581Z,8.73
2023-01-19T18:50:00.189Z,6.78
2023-01-19T18:52:07.349Z,7.82
2023-01-19T18:54:15.014Z,8.90
2023-01-19T18:56:21.891Z,9.23
2023-01-19T18:58:30.354Z,7.60
2023-01-19T19:00:37.338Z,8.70
2023-01-19T19:02:44.510Z,7.72
2023-01-19T19:04:51.624Z,7.47
2023-01-19T19:07:00.469Z,7.50
2023-01-19T19:09:07.598Z,8.77
2023-01-19T19:11:14.669Z,10.10
2023-01-19T19:13:22.927Z,9.15
2023-01-19T19:15:30.349Z,11.98
2023-01-19T19:17:38.877Z,6.25
2023-01-19T19:19:46.061Z,7.20
2023-01-19T19:21:53.171Z,6.40
2023-01-19T19:24:02.169Z,7.85
2023-01-19T19:26:11.088Z,8.13
2023-01-19T19:28:19.351Z,7.25
2023-01-19T19:30:26.539Z,8.25
2023-01-19T19:32:33.687Z,10.80
2023-01-19T19:34:40.526Z,7.05
2023-01-19T19:36:47.609Z,8.68
2023-01-19T19:38:54.979Z,8.45
2023-01-19T19:41:08.933Z,8.73
2023-01-19T19:43:15.815Z,11.48
2023-01-19T19:45:22.889Z,9.57
2023-01-19T19:47:31.399Z,7.07
2023-01-19T19:49:38.273Z,10.48
2023-01-19T19:51:45.403Z,8.00
2023-01-19T19:53:52.693Z,7.43
2023-01-19T19:56:01.004Z,7.88
2023-01-19T19:58:09.559Z,8.52
2023-01-19T20:00:16.935Z,9.35
2023-01-19T20:02:23.770Z,8.32
2023-01-19T20:04:31.010Z,9.25
2023-01-19T20:06:40.647Z,11.10
2023-01-19T20:08:48.598Z,10.85
2023-01-19T20:10:55.550Z,9.10
2023-01-19T20:13:02.854Z,12.75
2023-01-19T20:15:12.592Z,14.43
2023-01-19T20:17:20.082Z,19.60
2023-01-19T20:19:27.107Z,18.42
2023-01-19T20:21:35.417Z,17.00
2023-01-19T20:23:42.854Z,16.70
2023-01-19T20:25:49.983Z,17.27
2023-01-19T20:27:57.970Z,16.35
2023-01-19T20:30:05.012Z,15.98
2023-01-19T20:32:13.842Z,17.50
2023-01-19T20:34:23.679Z,16.48
2023-01-19T20:36:31.423Z,16.80
2023-01-19T20:38:38.555Z,17.45
2023-01-19T20:40:45.786Z,18.63
2023-01-19T20:42:52.709Z,15.38
2023-01-19T20:45:00.046Z,23.88
2023-01-19T20:47:07.235Z,25.60
2023-01-19T20:49:16.262Z,21.73
2023-01-19T20:51:24.049Z,22.02
2023-01-19T20:53:31.685Z,27.45
2023-01-19T20:55:40.210Z,24.58
2023-01-19T20:57:47.281Z,24.25
2023-01-19T20:59:54.258Z,25.25
2023-01-19T21:02:01.577Z,27.17
2023-01-19T21:04:08.727Z,28.13
2023-01-19T21:06:18.007Z,24.13
2023-01-19T21:08:24.750Z,23.88
2023-01-19T21:10:32.525Z,26.65
2023-01-19T21:12:39.600Z,28.70
2023-01-19T21:14:46.934Z,24.02
2023-01-19T21:16:54.219Z,25.15
2023-01-19T21:19:01.547Z,19.05
2023-01-19T21:21:28.495Z,21.35
2023-01-19T21:23:38.293Z,18.55
2023-01-19T21:25:52.744Z,18.77
2023-01-19T21:27:59.877Z,16.25
2023-01-19T21:30:07.417Z,17.25
2023-01-19T21:32:14.392Z,19.52
2023-01-19T21:34:21.616Z,18.42
2023-01-19T21:36:29.120Z,13.98
2023-01-19T21:38:40.476Z,16.33
2023-01-19T21:40:47.379Z,14.68
2023-01-19T21:42:56.699Z,16.98
2023-01-19T21:45:03.523Z,18.20
2023-01-19T21:47:12.904Z,17.50
2023-01-19T21:49:22.441Z,16.48
2023-01-19T21:51:29.778Z,16.60
2023-01-19T21:53:38.288Z,16.55
2023-01-19T21:55:48.185Z,18.67
2023-01-19T21:57:56.295Z,16.88
2023-01-19T22:00:03.528Z,14.32
2023-01-19T22:02:19.696Z,15.48
2023-01-19T22:04:34.014Z,16.83
2023-01-19T22:06:41.620Z,18.25
2023-01-19T22:08:50.632Z,20.45
2023-01-19T22:10:57.555Z,21.08
2023-01-19T22:13:04.991Z,22.27
2023-01-19T22:15:13.325Z,29.63
2023-01-19T22:17:20.737Z,27.58
2023-01-19T22:19:27.713Z,26.15
2023-01-19T22:21:36.684Z,29.65
2023-01-19T22:23:43.716Z,28.17
2023-01-19T22:25:52.586Z,29.15
2023-01-19T22:28:00.332Z,24.33
2023-01-19T22:30:08.281Z,21.88
2023-01-19T22:32:15.146Z,25.35
2023-01-19T22:34:22.540Z,24.45
2023-01-19T22:36:31.468Z,34.15
2023-01-19T22:38:40.041Z,34.45
2023-01-19T22:40:47.104Z,34.28
2023-01-19T22:42:55.875Z,30.83
2023-01-19T22:45:02.749Z,34.20
2023-01-19T22:47:09.939Z,29.98
2023-01-19T22:49:18.594Z,28.70
2023-01-19T22:51:26.844Z,28.15
2023-01-19T22:53:35.064Z,27.42
2023-01-19T22:55:42.190Z,32.10
2023-01-19T22:57:49.071Z,26.30
2023-01-19T22:59:57.987Z,26.35
2023-01-19T23:02:05.083Z,27.15
2023-01-19T23:04:14.808Z,28.73
2023-01-19T23:06:23.471Z,31.90
2023-01-19T23:08:30.602Z,28.65
2023-01-19T23:10:40.701Z,25.13
2023-01-19T23:12:47.989Z,28.10
2023-01-19T23:14:56.661Z,26.98
2023-01-19T23:17:03.793Z,24.65
2023-01-19T23:19:10.724Z,25.50
2023-01-19T23:21:19.236Z,26.20
2023-01-19T23:23:26.200Z,23.85
2023-01-19T23:25:35.258Z,27.08
2023-01-19T23:27:42.151Z,25.00
2023-01-19T23:29:49.734Z,27.70
2023-01-19T23:31:58.305Z,25.55
2023-01-19T23:34:07.186Z,30.40
2023-01-19T23:36:14.304Z,27.88
2023-01-19T23:38:22.599Z,29.48
2023-01-19T23:40:29.639Z,27.08
2023-01-19T23:42:36.772Z,31.45
2023-01-19T23:44:45.131Z,26.15
2023-01-19T23:46:52.471Z,27.05
2023-01-19T23:49:01.195Z,31.23
2023-01-19T23:51:10.537Z,31.55
2023-01-19T23:53:17.934Z,29.73
2023-01-19T23:55:24.889Z,27.98
2023-01-19T23:57:33.144Z,32.05
2023-01-19T23:59:40.059Z,27.90
